createdAt,value
2018-07-01T00:00:03.243Z,35.54
2018-07-01T00:01:03.187Z,35.62
2018-07-01T00:02:03.177Z,35.62
2018-07-01T00:03:03.194Z,36.00
2018-07-01T00:04:03.295Z,36.00
2018-07-01T00:05:03.201Z,36.00
2018-07-01T00:06:03.182Z,36.00
2018-07-01T00:07:03.246Z,35.42
2018-07-01T00:08:03.250Z,35.91
2018-07-01T00:09:03.216Z,35.91
2018-07-01T00:10:03.296Z,36.49
2018-07-01T00:11:03.198Z,36.19
2018-07-01T00:12:03.197Z,36.29
2018-07-01T00:13:03.294Z,36.10
2018-07-01T00:14:03.215Z,36.29
2018-07-01T00:15:03.243Z,36.39
2018-07-01T00:16:03.229Z,36.58
2018-07-01T00:17:03.237Z,36.77
2018-07-01T00:18:03.221Z,36.58
2018-07-01T00:19:03.253Z,36.58
2018-07-01T00:20:03.263Z,37.04
2018-07-01T00:21:03.229Z,36.58
2018-07-01T00:22:03.257Z,36.77
2018-07-01T00:23:03.266Z,36.87
2018-07-01T00:24:03.323Z,37.14
2018-07-01T00:25:03.247Z,37.14
2018-07-01T00:26:03.255Z,37.04
2018-07-01T00:27:03.253Z,37.06
2018-07-01T00:28:03.248Z,37.45
2018-07-01T00:29:03.253Z,37.34
2018-07-01T00:30:03.257Z,37.52
2018-07-01T00:31:03.248Z,37.43
2018-07-01T00:32:03.254Z,37.62
2018-07-01T00:33:03.262Z,37.52
2018-07-01T00:34:03.422Z,37.81
2018-07-01T00:35:03.327Z,37.81
2018-07-01T00:36:03.262Z,37.52
2018-07-01T00:37:03.269Z,37.91
2018-07-01T00:38:03.308Z,37.62
2018-07-01T00:39:11.938Z,37.81
2018-07-01T00:40:56.755Z,37.72
2018-07-01T00:41:56.741Z,37.91
2018-07-01T00:43:50.113Z,38.09
2018-07-01T00:44:50.148Z,38.01
2018-07-01T00:47:12.185Z,38.56
2018-07-01T00:48:12.213Z,38.49
2018-07-01T00:49:12.169Z,38.49
2018-07-01T00:50:12.167Z,38.28
2018-07-01T00:51:12.172Z,38.47
2018-07-01T00:52:12.209Z,38.66
2018-07-01T00:53:12.179Z,39.04
2018-07-01T00:54:12.187Z,38.95
2018-07-01T00:55:12.180Z,38.49
2018-07-01T00:56:12.232Z,38.59
2018-07-01T00:57:12.208Z,38.39
2018-07-01T00:58:12.219Z,38.68
2018-07-01T00:59:12.210Z,38.78
2018-07-01T01:00:12.257Z,39.04
2018-07-01T01:01:12.231Z,39.33
2018-07-01T01:02:12.207Z,39.43
2018-07-01T01:03:12.212Z,38.59
2018-07-01T01:04:12.202Z,38.39
2018-07-01T01:05:12.223Z,38.78
2018-07-01T01:06:12.215Z,39.04
2018-07-01T01:07:12.263Z,39.53
2018-07-01T01:08:12.216Z,39.43
2018-07-01T01:09:12.242Z,39.43
2018-07-01T01:10:12.241Z,39.53
2018-07-01T01:11:12.231Z,39.26
2018-07-01T01:12:12.222Z,39.26
2018-07-01T01:13:12.241Z,39.26
2018-07-01T01:14:12.229Z,39.06
2018-07-01T01:15:12.244Z,39.16
2018-07-01T01:16:12.241Z,39.26
2018-07-01T01:17:12.271Z,39.06
2018-07-01T01:18:12.286Z,39.33
2018-07-01T01:19:12.247Z,39.53
2018-07-01T01:20:12.252Z,39.62
2018-07-01T01:21:12.262Z,39.43
2018-07-01T01:22:12.271Z,39.72
2018-07-01T01:23:12.262Z,39.62
2018-07-01T01:24:12.276Z,39.74
2018-07-01T01:25:12.282Z,39.72
2018-07-01T01:26:12.252Z,39.81
2018-07-01T01:27:12.295Z,40.03
2018-07-01T01:28:12.265Z,39.62
2018-07-01T01:29:12.275Z,39.91
2018-07-01T01:30:20.969Z,40.30
2018-07-01T01:32:06.820Z,39.83
2018-07-01T01:33:06.716Z,39.91
2018-07-01T01:34:06.716Z,40.47
2018-07-01T01:35:06.734Z,40.56
2018-07-01T01:36:06.726Z,40.49
2018-07-01T01:37:15.355Z,39.74
2018-07-01T01:39:01.341Z,40.41
2018-07-01T01:40:10.667Z,40.58
2018-07-01T01:41:54.742Z,40.56
2018-07-01T01:42:54.765Z,40.76
2018-07-01T01:43:54.812Z,41.05
2018-07-01T01:44:54.812Z,40.68
2018-07-01T01:45:54.777Z,41.06
2018-07-01T01:46:54.738Z,40.88
2018-07-01T01:47:54.742Z,41.16
2018-07-01T01:48:54.757Z,40.88
2018-07-01T01:49:54.747Z,40.68
2018-07-01T01:50:54.751Z,40.95
2018-07-01T01:51:54.753Z,41.79
2018-07-01T01:52:54.755Z,41.26
2018-07-01T01:53:54.754Z,41.06
2018-07-01T01:54:54.771Z,41.06
2018-07-01T01:55:54.765Z,41.05
2018-07-01T01:56:54.773Z,41.72
2018-07-01T01:57:54.792Z,42.30
2018-07-01T01:58:54.774Z,42.30
2018-07-01T01:59:54.778Z,42.00
2018-07-01T02:00:54.776Z,41.91
2018-07-01T02:01:54.782Z,42.20
2018-07-01T02:02:54.809Z,42.37
2018-07-01T02:03:54.815Z,42.68
2018-07-01T02:04:54.829Z,42.85
2018-07-01T02:05:54.833Z,43.23
2018-07-01T02:06:54.791Z,42.76
2018-07-01T02:07:54.790Z,43.23
2018-07-01T02:08:54.794Z,43.70
2018-07-01T02:09:54.829Z,43.52
2018-07-01T02:10:54.802Z,43.43
2018-07-01T02:11:54.796Z,43.33
2018-07-01T02:12:54.796Z,43.52
2018-07-01T02:13:54.832Z,43.91
2018-07-01T02:14:54.809Z,44.08
2018-07-01T02:15:54.837Z,43.91
2018-07-01T02:16:54.816Z,44.00
2018-07-01T02:17:54.817Z,44.17
2018-07-01T02:18:54.846Z,44.48
2018-07-01T02:19:54.852Z,43.88
2018-07-01T02:20:54.846Z,43.81
2018-07-01T02:21:54.848Z,43.91
2018-07-01T02:22:54.824Z,44.00
2018-07-01T02:23:54.842Z,44.65
2018-07-01T02:24:54.825Z,45.04
2018-07-01T02:25:54.842Z,44.84
2018-07-01T02:26:54.829Z,44.75
2018-07-01T02:27:54.850Z,44.68
2018-07-01T02:28:54.843Z,44.68
2018-07-01T02:29:54.828Z,44.10
2018-07-01T02:30:54.828Z,43.71
2018-07-01T02:31:54.834Z,44.00
2018-07-01T02:32:54.864Z,44.10
2018-07-01T02:33:54.847Z,44.10
2018-07-01T02:34:54.866Z,43.81
2018-07-01T02:35:54.842Z,44.20
2018-07-01T02:36:54.842Z,44.87
2018-07-01T02:37:54.855Z,44.56
2018-07-01T02:38:54.846Z,44.75
2018-07-01T02:39:54.864Z,45.04
2018-07-01T02:40:54.869Z,45.52
2018-07-01T02:41:54.854Z,45.90
2018-07-01T02:42:54.888Z,45.14
2018-07-01T02:43:54.853Z,45.52
2018-07-01T02:44:54.860Z,46.00
2018-07-01T02:45:54.853Z,46.00
2018-07-01T02:46:54.857Z,46.28
2018-07-01T02:47:54.863Z,46.19
2018-07-01T02:48:54.862Z,46.28
2018-07-01T02:49:54.861Z,46.19
2018-07-01T02:50:54.868Z,46.67
2018-07-01T02:51:54.869Z,47.41
2018-07-01T02:52:54.873Z,46.65
2018-07-01T02:53:54.872Z,46.94
2018-07-01T02:54:54.865Z,46.94
2018-07-01T02:55:54.868Z,46.48
2018-07-01T02:56:54.871Z,47.41
2018-07-01T02:57:54.912Z,47.51
2018-07-01T03:17:13.271Z,47.44
2018-07-01T03:18:13.223Z,47.44
2018-07-01T03:19:21.863Z,47.51
2018-07-01T03:21:15.706Z,47.41
2018-07-01T03:22:06.649Z,47.51
2018-07-01T03:23:06.649Z,48.09
2018-07-01T03:24:06.647Z,47.53
2018-07-01T03:25:06.651Z,46.67
2018-07-01T03:27:36.765Z,47.80
2018-07-01T03:28:36.329Z,48.18
2018-07-01T03:30:28.721Z,48.54
2018-07-01T03:31:29.729Z,48.18
2018-07-01T03:33:14.489Z,48.09
2018-07-01T03:34:14.455Z,48.38
2018-07-01T03:35:14.468Z,48.47
2018-07-01T03:36:14.478Z,47.63
2018-07-01T03:37:14.473Z,46.59
2018-07-01T03:38:14.453Z,46.48
2018-07-01T03:39:14.455Z,47.15
2018-07-01T03:40:14.453Z,47.41
2018-07-01T03:41:14.457Z,48.25
2018-07-01T03:42:14.449Z,48.54
2018-07-01T03:43:14.456Z,49.31
2018-07-01T03:44:14.457Z,49.88
2018-07-01T03:45:14.480Z,48.85
2018-07-01T03:46:14.461Z,49.43
2018-07-01T03:47:14.463Z,49.21
2018-07-01T03:48:14.460Z,48.28
2018-07-01T03:49:14.464Z,49.21
2018-07-01T03:50:14.546Z,49.21
2018-07-01T03:51:14.465Z,49.88
2018-07-01T03:52:14.468Z,50.27
2018-07-01T03:53:14.474Z,49.41
2018-07-01T03:54:14.474Z,49.21
2018-07-01T03:55:14.470Z,50.17
2018-07-01T03:56:14.471Z,50.17
2018-07-01T03:57:14.466Z,49.12
2018-07-01T03:58:14.474Z,49.88
2018-07-01T03:59:14.474Z,49.88
2018-07-01T04:00:14.470Z,50.17
2018-07-01T04:01:14.473Z,49.98
2018-07-01T04:02:14.474Z,50.17
2018-07-01T04:03:14.476Z,50.08
2018-07-01T04:04:14.472Z,49.79
2018-07-01T04:05:14.472Z,50.27
2018-07-01T04:06:14.478Z,50.08
2018-07-01T04:07:14.483Z,49.50
2018-07-01T04:08:14.475Z,50.08
2018-07-01T04:09:14.487Z,50.17
2018-07-01T04:10:14.488Z,49.98
2018-07-01T04:11:14.493Z,50.17
2018-07-01T04:12:14.483Z,49.98
2018-07-01T04:13:14.479Z,50.43
2018-07-01T04:14:14.480Z,50.56
2018-07-01T04:15:14.489Z,50.82
2018-07-01T04:16:14.486Z,51.14
2018-07-01T04:17:14.488Z,51.14
2018-07-01T04:18:14.484Z,50.46
2018-07-01T04:19:14.488Z,50.65
2018-07-01T04:20:14.489Z,50.17
2018-07-01T04:21:14.494Z,50.29
2018-07-01T04:22:14.499Z,49.33
2018-07-01T04:23:14.491Z,49.88
2018-07-01T04:25:36.542Z,50.08
2018-07-01T04:26:36.536Z,49.98
2018-07-01T04:27:45.180Z,50.65
2018-07-01T04:29:29.940Z,50.20
2018-07-01T04:30:29.923Z,49.91
